sensor_id;sensor_type;location;lat;lon;timestamp;P1;durP1;ratioP1;P2;durP2;ratioP2
16512;SDS011;8369;48.030;11.598;2023-04-19T00:01:00;11.17;;;7.90;;
16512;SDS011;8369;48.030;11.598;2023-04-19T00:03:28;11.00;;;7.80;;
16512;SDS011;8369;48.030;11.598;2023-04-19T00:05:54;11.83;;;8.30;;
16512;SDS011;8369;48.030;11.598;2023-04-19T00:08:23;10.40;;;7.50;;
16512;SDS011;8369;48.030;11.598;2023-04-19T00:10:50;12.93;;;7.83;;
16512;SDS011;8369;48.030;11.598;2023-04-19T00:13:16;11.93;;;8.20;;
16512;SDS011;8369;48.030;11.598;2023-04-19T00:15:41;12.30;;;8.20;;
16512;SDS011;8369;48.030;11.598;2023-04-19T00:18:07;10.70;;;7.43;;
16512;SDS011;8369;48.030;11.598;2023-04-19T00:20:33;10.83;;;7.63;;
16512;SDS011;8369;48.030;11.598;2023-04-19T00:22:59;12.20;;;7.87;;
16512;SDS011;8369;48.030;11.598;2023-04-19T00:25:25;12.60;;;7.90;;
16512;SDS011;8369;48.030;11.598;2023-04-19T00:27:54;11.80;;;7.77;;
16512;SDS011;8369;48.030;11.598;2023-04-19T00:30:23;11.77;;;8.20;;
16512;SDS011;8369;48.030;11.598;2023-04-19T00:32:49;11.97;;;8.23;;
16512;SDS011;8369;48.030;11.598;2023-04-19T00:35:14;11.10;;;7.30;;
16512;SDS011;8369;48.030;11.598;2023-04-19T00:37:40;11.27;;;7.87;;
16512;SDS011;8369;48.030;11.598;2023-04-19T00:40:06;11.60;;;7.87;;
16512;SDS011;8369;48.030;11.598;2023-04-19T00:42:32;12.30;;;8.30;;
16512;SDS011;8369;48.030;11.598;2023-04-19T00:44:58;14.93;;;8.97;;
16512;SDS011;8369;48.030;11.598;2023-04-19T00:47:24;12.83;;;8.70;;
16512;SDS011;8369;48.030;11.598;2023-04-19T00:49:50;12.87;;;8.53;;
16512;SDS011;8369;48.030;11.598;2023-04-19T00:52:16;11.30;;;7.93;;
16512;SDS011;8369;48.030;11.598;2023-04-19T00:54:42;14.23;;;9.07;;
16512;SDS011;8369;48.030;11.598;2023-04-19T00:57:09;12.20;;;8.83;;
16512;SDS011;8369;48.030;11.598;2023-04-19T00:59:38;12.67;;;8.27;;
16512;SDS011;8369;48.030;11.598;2023-04-19T01:02:04;13.67;;;8.30;;
16512;SDS011;8369;48.030;11.598;2023-04-19T01:04:31;12.90;;;8.73;;
16512;SDS011;8369;48.030;11.598;2023-04-19T01:06:57;13.20;;;8.63;;
16512;SDS011;8369;48.030;11.598;2023-04-19T01:09:23;11.20;;;7.93;;
16512;SDS011;8369;48.030;11.598;2023-04-19T01:11:52;10.93;;;7.57;;
16512;SDS011;8369;48.030;11.598;2023-04-19T01:14:18;11.30;;;8.03;;
16512;SDS011;8369;48.030;11.598;2023-04-19T01:16:43;11.20;;;8.07;;
16512;SDS011;8369;48.030;11.598;2023-04-19T01:19:10;11.77;;;8.03;;
16512;SDS011;8369;48.030;11.598;2023-04-19T01:21:36;10.23;;;7.63;;
16512;SDS011;8369;48.030;11.598;2023-04-19T01:24:07;11.20;;;8.20;;
16512;SDS011;8369;48.030;11.598;2023-04-19T01:26:33;13.33;;;8.37;;
16512;SDS011;8369;48.030;11.598;2023-04-19T01:28:59;11.57;;;8.33;;
16512;SDS011;8369;48.030;11.598;2023-04-19T01:31:25;12.87;;;8.23;;
16512;SDS011;8369;48.030;11.598;2023-04-19T01:33:51;12.83;;;8.73;;
16512;SDS011;8369;48.030;11.598;2023-04-19T01:36:17;12.50;;;8.13;;
16512;SDS011;8369;48.030;11.598;2023-04-19T01:38:42;12.23;;;8.03;;
16512;SDS011;8369;48.030;11.598;2023-04-19T01:41:12;11.63;;;8.27;;
16512;SDS011;8369;48.030;11.598;2023-04-19T01:43:38;11.40;;;8.03;;
16512;SDS011;8369;48.030;11.598;2023-04-19T01:46:03;11.63;;;8.53;;
16512;SDS011;8369;48.030;11.598;2023-04-19T01:48:30;13.23;;;8.40;;
16512;SDS011;8369;48.030;11.598;2023-04-19T01:50:55;13.60;;;9.07;;
16512;SDS011;8369;48.030;11.598;2023-04-19T01:53:24;11.47;;;7.90;;
16512;SDS011;8369;48.030;11.598;2023-04-19T01:55:50;12.70;;;7.80;;
16512;SDS011;8369;48.030;11.598;2023-04-19T01:58:19;11.73;;;8.43;;
16512;SDS011;8369;48.030;11.598;2023-04-19T02:00:45;13.70;;;8.10;;
16512;SDS011;8369;48.030;11.598;2023-04-19T02:03:10;11.53;;;7.83;;
16512;SDS011;8369;48.030;11.598;2023-04-19T02:05:40;12.07;;;8.43;;
16512;SDS011;8369;48.030;11.598;2023-04-19T02:08:06;13.33;;;8.60;;
16512;SDS011;8369;48.030;11.598;2023-04-19T02:10:34;12.33;;;8.10;;
16512;SDS011;8369;48.030;11.598;2023-04-19T02:13:01;13.07;;;8.67;;
16512;SDS011;8369;48.030;11.598;2023-04-19T02:15:26;12.33;;;8.67;;
16512;SDS011;8369;48.030;11.598;2023-04-19T02:17:52;10.87;;;8.10;;
16512;SDS011;8369;48.030;11.598;2023-04-19T02:20:19;11.83;;;8.50;;
16512;SDS011;8369;48.030;11.598;2023-04-19T02:22:44;12.80;;;8.70;;
16512;SDS011;8369;48.030;11.598;2023-04-19T02:25:14;13.97;;;9.00;;
16512;SDS011;8369;48.030;11.598;2023-04-19T02:27:40;13.73;;;8.87;;
16512;SDS011;8369;48.030;11.598;2023-04-19T02:30:06;13.20;;;8.50;;
16512;SDS011;8369;48.030;11.598;2023-04-19T02:32:32;13.33;;;9.73;;
16512;SDS011;8369;48.030;11.598;2023-04-19T02:34:58;14.53;;;9.50;;
16512;SDS011;8369;48.030;11.598;2023-04-19T02:37:24;13.43;;;9.10;;
16512;SDS011;8369;48.030;11.598;2023-04-19T02:39:53;19.70;;;9.90;;
16512;SDS011;8369;48.030;11.598;2023-04-19T02:42:21;14.17;;;9.70;;
16512;SDS011;8369;48.030;11.598;2023-04-19T02:44:47;14.20;;;9.63;;
16512;SDS011;8369;48.030;11.598;2023-04-19T02:47:13;13.40;;;9.03;;
16512;SDS011;8369;48.030;11.598;2023-04-19T02:49:39;13.27;;;9.23;;
16512;SDS011;8369;48.030;11.598;2023-04-19T02:52:09;14.40;;;9.73;;
16512;SDS011;8369;48.030;11.598;2023-04-19T02:54:35;14.93;;;9.20;;
16512;SDS011;8369;48.030;11.598;2023-04-19T02:57:00;13.37;;;9.53;;
16512;SDS011;8369;48.030;11.598;2023-04-19T02:59:31;12.97;;;9.03;;
16512;SDS011;8369;48.030;11.598;2023-04-19T03:01:57;14.33;;;9.73;;
16512;SDS011;8369;48.030;11.598;2023-04-19T03:04:26;12.97;;;9.40;;
16512;SDS011;8369;48.030;11.598;2023-04-19T03:06:53;15.73;;;10.27;;
16512;SDS011;8369;48.030;11.598;2023-04-19T03:09:19;13.10;;;9.40;;
16512;SDS011;8369;48.030;11.598;2023-04-19T03:11:44;14.30;;;9.73;;
16512;SDS011;8369;48.030;11.598;2023-04-19T03:14:10;14.57;;;9.60;;
16512;SDS011;8369;48.030;11.598;2023-04-19T03:16:38;14.10;;;9.67;;
16512;SDS011;8369;48.030;11.598;2023-04-19T03:19:04;13.97;;;9.83;;
16512;SDS011;8369;48.030;11.598;2023-04-19T03:21:30;13.50;;;9.80;;
16512;SDS011;8369;48.030;11.598;2023-04-19T03:23:59;14.37;;;9.57;;
16512;SDS011;8369;48.030;11.598;2023-04-19T03:26:26;14.00;;;9.63;;
16512;SDS011;8369;48.030;11.598;2023-04-19T03:28:52;14.57;;;9.77;;
16512;SDS011;8369;48.030;11.598;2023-04-19T03:31:17;13.70;;;9.53;;
16512;SDS011;8369;48.030;11.598;2023-04-19T03:33:43;13.40;;;9.80;;
16512;SDS011;8369;48.030;11.598;2023-04-19T03:36:12;13.43;;;9.90;;
16512;SDS011;8369;48.030;11.598;2023-04-19T03:38:38;13.90;;;9.87;;
16512;SDS011;8369;48.030;11.598;2023-04-19T03:41:26;15.07;;;9.93;;
16512;SDS011;8369;48.030;11.598;2023-04-19T03:43:52;17.77;;;9.97;;
16512;SDS011;8369;48.030;11.598;2023-04-19T03:46:18;15.00;;;10.50;;
16512;SDS011;8369;48.030;11.598;2023-04-19T03:48:44;16.50;;;10.80;;
16512;SDS011;8369;48.030;11.598;2023-04-19T03:51:13;13.83;;;10.00;;
16512;SDS011;8369;48.030;11.598;2023-04-19T03:53:41;18.70;;;10.63;;
16512;SDS011;8369;48.030;11.598;2023-04-19T03:56:07;14.33;;;10.27;;
16512;SDS011;8369;48.030;11.598;2023-04-19T03:58:33;15.77;;;11.17;;
16512;SDS011;8369;48.030;11.598;2023-04-19T04:00:59;16.07;;;10.70;;
16512;SDS011;8369;48.030;11.598;2023-04-19T04:03:25;15.93;;;10.77;;
16512;SDS011;8369;48.030;11.598;2023-04-19T04:05:51;15.33;;;11.10;;
16512;SDS011;8369;48.030;11.598;2023-04-19T04:08:17;15.63;;;10.77;;
16512;SDS011;8369;48.030;11.598;2023-04-19T04:10:43;17.27;;;11.87;;
16512;SDS011;8369;48.030;11.598;2023-04-19T04:13:09;18.27;;;12.17;;
16512;SDS011;8369;48.030;11.598;2023-04-19T04:15:35;18.90;;;13.00;;
16512;SDS011;8369;48.030;11.598;2023-04-19T04:18:00;20.67;;;13.40;;
16512;SDS011;8369;48.030;11.598;2023-04-19T04:20:26;21.50;;;13.13;;
16512;SDS011;8369;48.030;11.598;2023-04-19T04:22:52;21.63;;;12.63;;
16512;SDS011;8369;48.030;11.598;2023-04-19T04:25:18;19.27;;;12.60;;
16512;SDS011;8369;48.030;11.598;2023-04-19T04:27:49;18.90;;;12.47;;
16512;SDS011;8369;48.030;11.598;2023-04-19T04:30:16;20.10;;;13.43;;
16512;SDS011;8369;48.030;11.598;2023-04-19T04:32:42;25.57;;;14.27;;
16512;SDS011;8369;48.030;11.598;2023-04-19T04:35:09;23.37;;;13.87;;
16512;SDS011;8369;48.030;11.598;2023-04-19T04:37:35;22.10;;;14.30;;
16512;SDS011;8369;48.030;11.598;2023-04-19T04:40:02;24.57;;;13.47;;
16512;SDS011;8369;48.030;11.598;2023-04-19T04:42:35;19.67;;;13.13;;
16512;SDS011;8369;48.030;11.598;2023-04-19T04:45:01;19.30;;;13.33;;
16512;SDS011;8369;48.030;11.598;2023-04-19T04:47:31;20.17;;;13.50;;
16512;SDS011;8369;48.030;11.598;2023-04-19T04:49:58;21.03;;;14.13;;
16512;SDS011;8369;48.030;11.598;2023-04-19T04:52:24;23.07;;;13.53;;
16512;SDS011;8369;48.030;11.598;2023-04-19T04:54:50;22.17;;;13.70;;
16512;SDS011;8369;48.030;11.598;2023-04-19T04:57:16;21.27;;;13.83;;
16512;SDS011;8369;48.030;11.598;2023-04-19T04:59:41;21.13;;;14.17;;
16512;SDS011;8369;48.030;11.598;2023-04-19T05:02:07;19.50;;;13.77;;
16512;SDS011;8369;48.030;11.598;2023-04-19T05:04:33;24.03;;;14.30;;
16512;SDS011;8369;48.030;11.598;2023-04-19T05:07:00;20.87;;;14.07;;
16512;SDS011;8369;48.030;11.598;2023-04-19T05:09:28;21.13;;;14.60;;
16512;SDS011;8369;48.030;11.598;2023-04-19T05:11:55;20.73;;;14.13;;
16512;SDS011;8369;48.030;11.598;2023-04-19T05:14:21;23.13;;;13.07;;
16512;SDS011;8369;48.030;11.598;2023-04-19T05:16:47;20.30;;;13.27;;
16512;SDS011;8369;48.030;11.598;2023-04-19T05:19:13;20.53;;;13.50;;
16512;SDS011;8369;48.030;11.598;2023-04-19T05:21:40;19.77;;;12.60;;
16512;SDS011;8369;48.030;11.598;2023-04-19T05:24:06;22.03;;;13.20;;
16512;SDS011;8369;48.030;11.598;2023-04-19T05:26:34;22.23;;;13.23;;
16512;SDS011;8369;48.030;11.598;2023-04-19T05:29:01;18.13;;;12.97;;
16512;SDS011;8369;48.030;11.598;2023-04-19T05:31:28;18.47;;;12.97;;
16512;SDS011;8369;48.030;11.598;2023-04-19T05:33:54;20.13;;;13.83;;
16512;SDS011;8369;48.030;11.598;2023-04-19T05:36:20;23.53;;;13.27;;
16512;SDS011;8369;48.030;11.598;2023-04-19T05:38:46;21.53;;;13.83;;
16512;SDS011;8369;48.030;11.598;2023-04-19T05:41:12;20.43;;;14.27;;
16512;SDS011;8369;48.030;11.598;2023-04-19T05:43:38;22.47;;;13.30;;
16512;SDS011;8369;48.030;11.598;2023-04-19T05:46:04;24.37;;;14.47;;
16512;SDS011;8369;48.030;11.598;2023-04-19T05:48:30;20.87;;;14.20;;
16512;SDS011;8369;48.030;11.598;2023-04-19T05:50:56;21.73;;;14.77;;
16512;SDS011;8369;48.030;11.598;2023-04-19T05:53:23;25.77;;;15.80;;
16512;SDS011;8369;48.030;11.598;2023-04-19T05:55:49;21.80;;;15.20;;
16512;SDS011;8369;48.030;11.598;2023-04-19T05:58:16;21.97;;;15.33;;
16512;SDS011;8369;48.030;11.598;2023-04-19T06:00:42;23.60;;;14.73;;
16512;SDS011;8369;48.030;11.598;2023-04-19T06:03:08;24.07;;;15.83;;
16512;SDS011;8369;48.030;11.598;2023-04-19T06:05:34;23.73;;;14.53;;
16512;SDS011;8369;48.030;11.598;2023-04-19T06:07:59;31.83;;;17.00;;
16512;SDS011;8369;48.030;11.598;2023-04-19T06:10:25;27.37;;;16.40;;
16512;SDS011;8369;48.030;11.598;2023-04-19T06:12:52;25.50;;;15.67;;
16512;SDS011;8369;48.030;11.598;2023-04-19T06:15:18;20.93;;;15.00;;
16512;SDS011;8369;48.030;11.598;2023-04-19T06:17:44;24.10;;;14.83;;
16512;SDS011;8369;48.030;11.598;2023-04-19T06:20:11;25.07;;;15.63;;
16512;SDS011;8369;48.030;11.598;2023-04-19T06:22:41;25.70;;;15.47;;
16512;SDS011;8369;48.030;11.598;2023-04-19T06:25:09;26.60;;;15.60;;
16512;SDS011;8369;48.030;11.598;2023-04-19T06:27:36;28.23;;;15.97;;
16512;SDS011;8369;48.030;11.598;2023-04-19T06:30:02;26.07;;;16.50;;
16512;SDS011;8369;48.030;11.598;2023-04-19T06:32:28;23.63;;;14.80;;
16512;SDS011;8369;48.030;11.598;2023-04-19T06:34:55;27.00;;;15.57;;
16512;SDS011;8369;48.030;11.598;2023-04-19T06:37:44;23.93;;;15.17;;
16512;SDS011;8369;48.030;11.598;2023-04-19T06:40:10;24.83;;;15.93;;
16512;SDS011;8369;48.030;11.598;2023-04-19T06:42:37;25.70;;;15.33;;
16512;SDS011;8369;48.030;11.598;2023-04-19T06:45:03;25.20;;;15.17;;
16512;SDS011;8369;48.030;11.598;2023-04-19T06:47:30;27.13;;;15.97;;
16512;SDS011;8369;48.030;11.598;2023-04-19T06:49:56;23.00;;;14.80;;
16512;SDS011;8369;48.030;11.598;2023-04-19T06:52:22;27.17;;;14.90;;
16512;SDS011;8369;48.030;11.598;2023-04-19T06:54:48;26.53;;;15.73;;
16512;SDS011;8369;48.030;11.598;2023-04-19T06:57:15;23.47;;;14.53;;
16512;SDS011;8369;48.030;11.598;2023-04-19T06:59:41;26.33;;;14.47;;
16512;SDS011;8369;48.030;11.598;2023-04-19T07:02:07;30.60;;;15.70;;
16512;SDS011;8369;48.030;11.598;2023-04-19T07:04:33;25.00;;;14.87;;
16512;SDS011;8369;48.030;11.598;2023-04-19T07:06:59;25.13;;;14.50;;
16512;SDS011;8369;48.030;11.598;2023-04-19T07:09:25;25.40;;;15.03;;
16512;SDS011;8369;48.030;11.598;2023-04-19T07:11:51;23.27;;;15.07;;
16512;SDS011;8369;48.030;11.598;2023-04-19T07:14:17;23.60;;;14.67;;
16512;SDS011;8369;48.030;11.598;2023-04-19T07:16:44;24.80;;;15.37;;
16512;SDS011;8369;48.030;11.598;2023-04-19T07:19:10;23.93;;;14.80;;
16512;SDS011;8369;48.030;11.598;2023-04-19T07:21:37;27.67;;;15.40;;
16512;SDS011;8369;48.030;11.598;2023-04-19T07:24:13;22.70;;;14.67;;
16512;SDS011;8369;48.030;11.598;2023-04-19T07:26:38;25.03;;;14.17;;
16512;SDS011;8369;48.030;11.598;2023-04-19T07:29:04;27.17;;;15.33;;
16512;SDS011;8369;48.030;11.598;2023-04-19T07:31:31;27.73;;;15.27;;
16512;SDS011;8369;48.030;11.598;2023-04-19T07:33:57;23.67;;;15.03;;
16512;SDS011;8369;48.030;11.598;2023-04-19T07:36:24;24.97;;;15.17;;
16512;SDS011;8369;48.030;11.598;2023-04-19T07:38:50;23.70;;;15.27;;
16512;SDS011;8369;48.030;11.598;2023-04-19T07:41:17;21.97;;;13.93;;
16512;SDS011;8369;48.030;11.598;2023-04-19T07:43:43;22.40;;;14.53;;
16512;SDS011;8369;48.030;11.598;2023-04-19T07:46:11;23.93;;;14.03;;
16512;SDS011;8369;48.030;11.598;2023-04-19T07:48:40;26.63;;;15.70;;
16512;SDS011;8369;48.030;11.598;2023-04-19T07:51:13;25.27;;;15.57;;
16512;SDS011;8369;48.030;11.598;2023-04-19T07:53:49;23.40;;;15.23;;
16512;SDS011;8369;48.030;11.598;2023-04-19T07:56:16;23.43;;;14.63;;
16512;SDS011;8369;48.030;11.598;2023-04-19T07:58:44;25.63;;;14.17;;
16512;SDS011;8369;48.030;11.598;2023-04-19T08:01:11;23.23;;;14.67;;
16512;SDS011;8369;48.030;11.598;2023-04-19T08:03:37;24.80;;;14.77;;
16512;SDS011;8369;48.030;11.598;2023-04-19T08:06:06;23.53;;;15.30;;
16512;SDS011;8369;48.030;11.598;2023-04-19T08:08:35;24.60;;;14.93;;
16512;SDS011;8369;48.030;11.598;2023-04-19T08:11:02;22.30;;;14.80;;
16512;SDS011;8369;48.030;11.598;2023-04-19T08:13:29;25.13;;;14.43;;
16512;SDS011;8369;48.030;11.598;2023-04-19T08:15:56;23.60;;;14.97;;
16512;SDS011;8369;48.030;11.598;2023-04-19T08:18:23;24.77;;;15.47;;
16512;SDS011;8369;48.030;11.598;2023-04-19T08:20:50;23.07;;;14.23;;
16512;SDS011;8369;48.030;11.598;2023-04-19T08:23:16;22.23;;;14.27;;
16512;SDS011;8369;48.030;11.598;2023-04-19T08:25:43;24.93;;;15.03;;
16512;SDS011;8369;48.030;11.598;2023-04-19T08:28:10;32.93;;;15.60;;
16512;SDS011;8369;48.030;11.598;2023-04-19T08:30:36;27.40;;;15.60;;
16512;SDS011;8369;48.030;11.598;2023-04-19T08:33:03;25.50;;;16.40;;
16512;SDS011;8369;48.030;11.598;2023-04-19T08:35:29;24.90;;;15.33;;
16512;SDS011;8369;48.030;11.598;2023-04-19T08:37:56;27.80;;;15.50;;
16512;SDS011;8369;48.030;11.598;2023-04-19T08:40:23;26.10;;;16.57;;
16512;SDS011;8369;48.030;11.598;2023-04-19T08:42:51;24.17;;;13.93;;
16512;SDS011;8369;48.030;11.598;2023-04-19T08:45:18;29.53;;;15.40;;
16512;SDS011;8369;48.030;11.598;2023-04-19T08:47:51;21.90;;;13.67;;
16512;SDS011;8369;48.030;11.598;2023-04-19T08:50:19;25.00;;;14.37;;
16512;SDS011;8369;48.030;11.598;2023-04-19T08:52:48;24.43;;;14.67;;
16512;SDS011;8369;48.030;11.598;2023-04-19T08:55:14;24.87;;;14.83;;
16512;SDS011;8369;48.030;11.598;2023-04-19T08:57:41;24.13;;;15.07;;
16512;SDS011;8369;48.030;11.598;2023-04-19T09:00:09;25.53;;;15.47;;
16512;SDS011;8369;48.030;11.598;2023-04-19T09:02:43;22.63;;;14.37;;
16512;SDS011;8369;48.030;11.598;2023-04-19T09:05:15;22.17;;;13.43;;
16512;SDS011;8369;48.030;11.598;2023-04-19T09:07:43;22.07;;;14.10;;
16512;SDS011;8369;48.030;11.598;2023-04-19T09:10:13;22.60;;;13.67;;
16512;SDS011;8369;48.030;11.598;2023-04-19T09:12:42;23.53;;;13.43;;
16512;SDS011;8369;48.030;11.598;2023-04-19T09:15:10;22.40;;;12.87;;
16512;SDS011;8369;48.030;11.598;2023-04-19T09:17:37;19.37;;;12.93;;
16512;SDS011;8369;48.030;11.598;2023-04-19T09:20:05;22.93;;;12.97;;
16512;SDS011;8369;48.030;11.598;2023-04-19T09:22:33;22.17;;;14.23;;
16512;SDS011;8369;48.030;11.598;2023-04-19T09:24:59;21.80;;;13.80;;
16512;SDS011;8369;48.030;11.598;2023-04-19T09:27:27;28.27;;;14.67;;
16512;SDS011;8369;48.030;11.598;2023-04-19T09:30:00;24.33;;;13.10;;
16512;SDS011;8369;48.030;11.598;2023-04-19T09:32:28;19.87;;;12.60;;
16512;SDS011;8369;48.030;11.598;2023-04-19T09:35:09;22.63;;;13.00;;
16512;SDS011;8369;48.030;11.598;2023-04-19T09:37:40;23.83;;;13.27;;
16512;SDS011;8369;48.030;11.598;2023-04-19T09:40:23;18.63;;;12.27;;
16512;SDS011;8369;48.030;11.598;2023-04-19T09:42:51;23.07;;;12.90;;
16512;SDS011;8369;48.030;11.598;2023-04-19T09:45:18;20.53;;;13.53;;
16512;SDS011;8369;48.030;11.598;2023-04-19T09:47:44;23.40;;;13.27;;
16512;SDS011;8369;48.030;11.598;2023-04-19T09:50:10;18.53;;;12.37;;
16512;SDS011;8369;48.030;11.598;2023-04-19T09:52:39;24.50;;;13.47;;
16512;SDS011;8369;48.030;11.598;2023-04-19T09:55:06;21.80;;;12.50;;
16512;SDS011;8369;48.030;11.598;2023-04-19T09:57:33;21.03;;;11.97;;
16512;SDS011;8369;48.030;11.598;2023-04-19T10:00:01;22.40;;;13.47;;
16512;SDS011;8369;48.030;11.598;2023-04-19T10:02:32;23.37;;;13.67;;
16512;SDS011;8369;48.030;11.598;2023-04-19T10:05:00;23.03;;;12.93;;
16512;SDS011;8369;48.030;11.598;2023-04-19T10:07:29;24.17;;;13.60;;
16512;SDS011;8369;48.030;11.598;2023-04-19T10:09:57;22.37;;;14.43;;
16512;SDS011;8369;48.030;11.598;2023-04-19T10:12:25;24.10;;;14.00;;
16512;SDS011;8369;48.030;11.598;2023-04-19T10:14:52;27.93;;;15.63;;
16512;SDS011;8369;48.030;11.598;2023-04-19T10:17:21;23.40;;;15.37;;
16512;SDS011;8369;48.030;11.598;2023-04-19T10:19:54;21.83;;;14.43;;
16512;SDS011;8369;48.030;11.598;2023-04-19T10:22:26;21.27;;;13.63;;
16512;SDS011;8369;48.030;11.598;2023-04-19T10:25:12;20.50;;;14.40;;
16512;SDS011;8369;48.030;11.598;2023-04-19T10:27:40;23.43;;;14.50;;
16512;SDS011;8369;48.030;11.598;2023-04-19T10:30:18;21.97;;;14.37;;
16512;SDS011;8369;48.030;11.598;2023-04-19T10:32:50;24.50;;;14.53;;
16512;SDS011;8369;48.030;11.598;2023-04-19T10:35:27;20.70;;;13.07;;
16512;SDS011;8369;48.030;11.598;2023-04-19T10:40:56;19.43;;;12.17;;
16512;SDS011;8369;48.030;11.598;2023-04-19T10:43:28;18.57;;;11.40;;
16512;SDS011;8369;48.030;11.598;2023-04-19T10:45:59;22.17;;;12.17;;
16512;SDS011;8369;48.030;11.598;2023-04-19T10:51:20;14.63;;;10.90;;
16512;SDS011;8369;48.030;11.598;2023-04-19T10:54:26;20.93;;;12.23;;
16512;SDS011;8369;48.030;11.598;2023-04-19T10:57:07;15.60;;;11.10;;
16512;SDS011;8369;48.030;11.598;2023-04-19T10:59:35;20.67;;;12.30;;
16512;SDS011;8369;48.030;11.598;2023-04-19T11:02:25;15.10;;;10.93;;
16512;SDS011;8369;48.030;11.598;2023-04-19T11:04:57;19.73;;;11.70;;
16512;SDS011;8369;48.030;11.598;2023-04-19T11:07:24;15.87;;;12.13;;
16512;SDS011;8369;48.030;11.598;2023-04-19T11:09:51;17.67;;;10.73;;
16512;SDS011;8369;48.030;11.598;2023-04-19T11:12:18;22.17;;;11.80;;
16512;SDS011;8369;48.030;11.598;2023-04-19T11:14:52;18.40;;;11.43;;
16512;SDS011;8369;48.030;11.598;2023-04-19T11:17:30;19.57;;;11.70;;
16512;SDS011;8369;48.030;11.598;2023-04-19T11:22:35;18.27;;;11.17;;
16512;SDS011;8369;48.030;11.598;2023-04-19T11:25:18;17.33;;;11.47;;
16512;SDS011;8369;48.030;11.598;2023-04-19T11:27:50;17.23;;;10.73;;
16512;SDS011;8369;48.030;11.598;2023-04-19T11:30:21;18.83;;;12.00;;
16512;SDS011;8369;48.030;11.598;2023-04-19T11:32:54;17.87;;;11.47;;
16512;SDS011;8369;48.030;11.598;2023-04-19T11:35:22;20.57;;;12.37;;
16512;SDS011;8369;48.030;11.598;2023-04-19T11:37:50;19.10;;;11.80;;
16512;SDS011;8369;48.030;11.598;2023-04-19T11:40:18;19.97;;;11.93;;
16512;SDS011;8369;48.030;11.598;2023-04-19T11:42:45;17.60;;;12.27;;
16512;SDS011;8369;48.030;11.598;2023-04-19T11:45:12;17.77;;;12.33;;
16512;SDS011;8369;48.030;11.598;2023-04-19T11:47:54;22.73;;;14.13;;
16512;SDS011;8369;48.030;11.598;2023-04-19T11:50:37;16.50;;;11.43;;
16512;SDS011;8369;48.030;11.598;2023-04-19T11:53:20;20.47;;;13.67;;
16512;SDS011;8369;48.030;11.598;2023-04-19T11:55:49;20.80;;;13.37;;
16512;SDS011;8369;48.030;11.598;2023-04-19T11:58:43;18.57;;;12.57;;
16512;SDS011;8369;48.030;11.598;2023-04-19T12:01:13;20.23;;;12.33;;
16512;SDS011;8369;48.030;11.598;2023-04-19T12:03:45;18.53;;;12.33;;
16512;SDS011;8369;48.030;11.598;2023-04-19T12:06:29;18.30;;;11.77;;
16512;SDS011;8369;48.030;11.598;2023-04-19T12:08:56;18.17;;;12.10;;
16512;SDS011;8369;48.030;11.598;2023-04-19T12:11:24;20.77;;;12.07;;
16512;SDS011;8369;48.030;11.598;2023-04-19T12:16:39;20.23;;;13.17;;
16512;SDS011;8369;48.030;11.598;2023-04-19T12:19:10;20.60;;;12.47;;
16512;SDS011;8369;48.030;11.598;2023-04-19T12:21:41;16.40;;;10.57;;
16512;SDS011;8369;48.030;11.598;2023-04-19T12:24:08;18.73;;;11.10;;
16512;SDS011;8369;48.030;11.598;2023-04-19T12:26:35;17.77;;;12.00;;
16512;SDS011;8369;48.030;11.598;2023-04-19T12:29:02;16.67;;;11.47;;
16512;SDS011;8369;48.030;11.598;2023-04-19T12:31:30;22.17;;;12.87;;
16512;SDS011;8369;48.030;11.598;2023-04-19T12:33:57;24.47;;;14.67;;
16512;SDS011;8369;48.030;11.598;2023-04-19T12:36:24;16.90;;;11.50;;
16512;SDS011;8369;48.030;11.598;2023-04-19T12:38:50;17.20;;;11.37;;
16512;SDS011;8369;48.030;11.598;2023-04-19T12:41:16;15.70;;;11.07;;
16512;SDS011;8369;48.030;11.598;2023-04-19T12:43:42;16.60;;;11.80;;
16512;SDS011;8369;48.030;11.598;2023-04-19T12:46:08;18.93;;;11.93;;
16512;SDS011;8369;48.030;11.598;2023-04-19T12:48:34;17.87;;;11.77;;
16512;SDS011;8369;48.030;11.598;2023-04-19T12:51:00;17.13;;;11.53;;
16512;SDS011;8369;48.030;11.598;2023-04-19T12:53:26;17.93;;;10.83;;
16512;SDS011;8369;48.030;11.598;2023-04-19T12:55:52;17.30;;;10.27;;
16512;SDS011;8369;48.030;11.598;2023-04-19T12:58:18;18.03;;;11.13;;
16512;SDS011;8369;48.030;11.598;2023-04-19T13:00:45;17.40;;;11.30;;
16512;SDS011;8369;48.030;11.598;2023-04-19T13:03:12;20.00;;;11.97;;
16512;SDS011;8369;48.030;11.598;2023-04-19T13:05:38;14.53;;;10.37;;
16512;SDS011;8369;48.030;11.598;2023-04-19T13:08:04;15.20;;;11.20;;
16512;SDS011;8369;48.030;11.598;2023-04-19T13:10:30;12.53;;;9.53;;
16512;SDS011;8369;48.030;11.598;2023-04-19T13:12:56;16.07;;;10.03;;
16512;SDS011;8369;48.030;11.598;2023-04-19T13:15:23;11.90;;;8.87;;
16512;SDS011;8369;48.030;11.598;2023-04-19T13:17:53;11.43;;;7.63;;
16512;SDS011;8369;48.030;11.598;2023-04-19T13:20:22;10.67;;;7.90;;
16512;SDS011;8369;48.030;11.598;2023-04-19T13:22:48;10.60;;;6.97;;
16512;SDS011;8369;48.030;11.598;2023-04-19T13:25:14;11.23;;;7.30;;
16512;SDS011;8369;48.030;11.598;2023-04-19T13:27:40;10.90;;;7.33;;
16512;SDS011;8369;48.030;11.598;2023-04-19T13:30:06;11.27;;;7.83;;
16512;SDS011;8369;48.030;11.598;2023-04-19T13:32:34;12.93;;;7.50;;
16512;SDS011;8369;48.030;11.598;2023-04-19T13:35:00;11.23;;;7.40;;
16512;SDS011;8369;48.030;11.598;2023-04-19T13:37:26;10.83;;;7.63;;
16512;SDS011;8369;48.030;11.598;2023-04-19T13:39:52;10.07;;;7.20;;
16512;SDS011;8369;48.030;11.598;2023-04-19T13:42:18;10.57;;;7.53;;
16512;SDS011;8369;48.030;11.598;2023-04-19T13:44:43;9.90;;;6.60;;
16512;SDS011;8369;48.030;11.598;2023-04-19T13:47:09;11.60;;;7.47;;
16512;SDS011;8369;48.030;11.598;2023-04-19T13:49:43;12.77;;;7.97;;
16512;SDS011;8369;48.030;11.598;2023-04-19T13:52:15;8.63;;;6.53;;
16512;SDS011;8369;48.030;11.598;2023-04-19T13:54:42;12.73;;;7.53;;
16512;SDS011;8369;48.030;11.598;2023-04-19T13:57:07;11.17;;;7.60;;
16512;SDS011;8369;48.030;11.598;2023-04-19T13:59:37;10.40;;;7.47;;
16512;SDS011;8369;48.030;11.598;2023-04-19T14:02:03;10.57;;;7.40;;
16512;SDS011;8369;48.030;11.598;2023-04-19T14:04:28;11.17;;;7.80;;
16512;SDS011;8369;48.030;11.598;2023-04-19T14:06:54;10.20;;;7.83;;
16512;SDS011;8369;48.030;11.598;2023-04-19T14:09:23;10.67;;;7.30;;
16512;SDS011;8369;48.030;11.598;2023-04-19T14:11:49;10.93;;;7.70;;
16512;SDS011;8369;48.030;11.598;2023-04-19T14:14:44;10.47;;;7.43;;
16512;SDS011;8369;48.030;11.598;2023-04-19T14:17:10;9.83;;;7.00;;
16512;SDS011;8369;48.030;11.598;2023-04-19T14:19:36;10.00;;;6.67;;
16512;SDS011;8369;48.030;11.598;2023-04-19T14:22:04;12.57;;;8.07;;
16512;SDS011;8369;48.030;11.598;2023-04-19T14:24:30;9.37;;;6.37;;
16512;SDS011;8369;48.030;11.598;2023-04-19T14:26:56;9.13;;;6.33;;
16512;SDS011;8369;48.030;11.598;2023-04-19T14:29:22;9.17;;;5.53;;
16512;SDS011;8369;48.030;11.598;2023-04-19T14:31:48;8.50;;;4.97;;
16512;SDS011;8369;48.030;11.598;2023-04-19T14:34:13;8.70;;;4.00;;
16512;SDS011;8369;48.030;11.598;2023-04-19T14:36:41;3.40;;;2.97;;
16512;SDS011;8369;48.030;11.598;2023-04-19T14:39:07;4.07;;;2.80;;
16512;SDS011;8369;48.030;11.598;2023-04-19T14:41:33;4.50;;;3.00;;